sensor_id;sensor_type;location;lat;lon;timestamp;P1;durP1;ratioP1;P2;durP2;ratioP2
61903;SDS011;47857;52.270;6.804;2022-08-25T00:01:38;7.93;;;3.17;;
61903;SDS011;47857;52.270;6.804;2022-08-25T00:04:07;7.03;;;2.78;;
61903;SDS011;47857;52.270;6.804;2022-08-25T00:06:35;5.68;;;2.90;;
61903;SDS011;47857;52.270;6.804;2022-08-25T00:09:01;6.47;;;2.63;;
61903;SDS011;47857;52.270;6.804;2022-08-25T00:11:28;12.18;;;2.80;;
61903;SDS011;47857;52.270;6.804;2022-08-25T00:13:56;6.93;;;2.90;;
61903;SDS011;47857;52.270;6.804;2022-08-25T00:16:25;4.82;;;2.70;;
61903;SDS011;47857;52.270;6.804;2022-08-25T00:18:53;6.13;;;3.03;;
61903;SDS011;47857;52.270;6.804;2022-08-25T00:21:21;5.10;;;2.80;;
61903;SDS011;47857;52.270;6.804;2022-08-25T00:23:47;3.75;;;2.50;;
61903;SDS011;47857;52.270;6.804;2022-08-25T00:26:13;6.07;;;2.70;;
61903;SDS011;47857;52.270;6.804;2022-08-25T00:28:39;4.90;;;2.85;;
61903;SDS011;47857;52.270;6.804;2022-08-25T00:31:05;9.85;;;3.05;;
61903;SDS011;47857;52.270;6.804;2022-08-25T00:33:31;4.25;;;2.95;;
61903;SDS011;47857;52.270;6.804;2022-08-25T00:35:58;6.15;;;2.95;;
61903;SDS011;47857;52.270;6.804;2022-08-25T00:38:24;5.38;;;3.05;;
61903;SDS011;47857;52.270;6.804;2022-08-25T00:40:50;8.93;;;3.08;;
61903;SDS011;47857;52.270;6.804;2022-08-25T00:46:27;5.05;;;3.08;;
61903;SDS011;47857;52.270;6.804;2022-08-25T00:48:59;6.47;;;3.00;;
61903;SDS011;47857;52.270;6.804;2022-08-25T00:51:28;8.35;;;3.00;;
61903;SDS011;47857;52.270;6.804;2022-08-25T00:53:57;9.23;;;2.83;;
61903;SDS011;47857;52.270;6.804;2022-08-25T00:56:23;9.13;;;2.80;;
61903;SDS011;47857;52.270;6.804;2022-08-25T00:58:49;6.30;;;2.80;;
61903;SDS011;47857;52.270;6.804;2022-08-25T01:01:15;10.02;;;3.13;;
61903;SDS011;47857;52.270;6.804;2022-08-25T01:03:41;6.65;;;2.90;;
61903;SDS011;47857;52.270;6.804;2022-08-25T01:06:06;6.25;;;3.05;;
61903;SDS011;47857;52.270;6.804;2022-08-25T01:08:34;5.75;;;3.00;;
61903;SDS011;47857;52.270;6.804;2022-08-25T01:11:04;5.18;;;3.00;;
61903;SDS011;47857;52.270;6.804;2022-08-25T01:13:32;8.07;;;2.80;;
61903;SDS011;47857;52.270;6.804;2022-08-25T01:16:18;8.23;;;3.03;;
61903;SDS011;47857;52.270;6.804;2022-08-25T01:18:55;6.47;;;3.00;;
61903;SDS011;47857;52.270;6.804;2022-08-25T01:21:23;6.15;;;2.90;;
61903;SDS011;47857;52.270;6.804;2022-08-25T01:23:50;7.95;;;2.78;;
61903;SDS011;47857;52.270;6.804;2022-08-25T01:26:27;6.57;;;2.95;;
61903;SDS011;47857;52.270;6.804;2022-08-25T01:28:54;5.43;;;2.63;;
61903;SDS011;47857;52.270;6.804;2022-08-25T01:31:39;6.20;;;2.83;;
61903;SDS011;47857;52.270;6.804;2022-08-25T01:34:06;6.57;;;2.90;;
61903;SDS011;47857;52.270;6.804;2022-08-25T01:36:32;8.25;;;3.13;;
61903;SDS011;47857;52.270;6.804;2022-08-25T01:39:00;5.22;;;3.10;;
61903;SDS011;47857;52.270;6.804;2022-08-25T01:43:53;10.50;;;3.40;;
61903;SDS011;47857;52.270;6.804;2022-08-25T01:46:19;5.45;;;2.70;;
61903;SDS011;47857;52.270;6.804;2022-08-25T01:48:44;4.00;;;2.83;;
61903;SDS011;47857;52.270;6.804;2022-08-25T01:51:10;6.38;;;2.80;;
61903;SDS011;47857;52.270;6.804;2022-08-25T01:53:35;6.10;;;3.17;;
61903;SDS011;47857;52.270;6.804;2022-08-25T01:56:11;9.75;;;3.10;;
61903;SDS011;47857;52.270;6.804;2022-08-25T01:58:39;8.63;;;3.25;;
61903;SDS011;47857;52.270;6.804;2022-08-25T02:01:08;9.68;;;2.85;;
61903;SDS011;47857;52.270;6.804;2022-08-25T02:03:39;4.55;;;2.70;;
61903;SDS011;47857;52.270;6.804;2022-08-25T02:06:05;4.47;;;3.00;;
61903;SDS011;47857;52.270;6.804;2022-08-25T02:08:31;7.28;;;2.70;;
61903;SDS011;47857;52.270;6.804;2022-08-25T02:10:57;8.18;;;2.67;;
61903;SDS011;47857;52.270;6.804;2022-08-25T02:13:22;5.43;;;2.78;;
61903;SDS011;47857;52.270;6.804;2022-08-25T02:18:29;6.03;;;2.88;;
61903;SDS011;47857;52.270;6.804;2022-08-25T02:23:27;5.47;;;2.72;;
61903;SDS011;47857;52.270;6.804;2022-08-25T02:25:53;5.63;;;2.80;;
61903;SDS011;47857;52.270;6.804;2022-08-25T02:28:21;7.10;;;3.13;;
61903;SDS011;47857;52.270;6.804;2022-08-25T02:30:46;4.88;;;2.90;;
61903;SDS011;47857;52.270;6.804;2022-08-25T02:33:12;8.25;;;2.90;;
61903;SDS011;47857;52.270;6.804;2022-08-25T02:35:38;6.15;;;3.20;;
61903;SDS011;47857;52.270;6.804;2022-08-25T02:38:04;8.30;;;2.90;;
61903;SDS011;47857;52.270;6.804;2022-08-25T02:40:30;7.68;;;2.75;;
61903;SDS011;47857;52.270;6.804;2022-08-25T02:42:55;9.32;;;2.88;;
61903;SDS011;47857;52.270;6.804;2022-08-25T02:45:21;9.45;;;3.13;;
61903;SDS011;47857;52.270;6.804;2022-08-25T02:47:47;5.43;;;2.90;;
61903;SDS011;47857;52.270;6.804;2022-08-25T02:50:12;6.03;;;2.70;;
61903;SDS011;47857;52.270;6.804;2022-08-25T02:52:38;4.85;;;2.97;;
61903;SDS011;47857;52.270;6.804;2022-08-25T02:55:06;8.68;;;2.70;;
61903;SDS011;47857;52.270;6.804;2022-08-25T02:57:33;5.70;;;2.85;;
61903;SDS011;47857;52.270;6.804;2022-08-25T02:59:59;6.60;;;2.90;;
61903;SDS011;47857;52.270;6.804;2022-08-25T03:02:25;7.68;;;2.80;;
61903;SDS011;47857;52.270;6.804;2022-08-25T03:04:52;8.32;;;3.08;;
61903;SDS011;47857;52.270;6.804;2022-08-25T03:07:18;5.13;;;2.83;;
61903;SDS011;47857;52.270;6.804;2022-08-25T03:09:44;7.25;;;3.00;;
61903;SDS011;47857;52.270;6.804;2022-08-25T03:12:10;4.95;;;3.20;;
61903;SDS011;47857;52.270;6.804;2022-08-25T03:14:37;5.88;;;2.60;;
61903;SDS011;47857;52.270;6.804;2022-08-25T03:17:03;5.13;;;2.70;;
61903;SDS011;47857;52.270;6.804;2022-08-25T03:19:30;4.85;;;2.90;;
61903;SDS011;47857;52.270;6.804;2022-08-25T03:21:55;3.92;;;2.75;;
61903;SDS011;47857;52.270;6.804;2022-08-25T03:24:22;6.80;;;2.97;;
61903;SDS011;47857;52.270;6.804;2022-08-25T03:26:48;4.60;;;2.67;;
61903;SDS011;47857;52.270;6.804;2022-08-25T03:29:32;6.65;;;3.20;;
61903;SDS011;47857;52.270;6.804;2022-08-25T03:31:58;5.55;;;3.00;;
61903;SDS011;47857;52.270;6.804;2022-08-25T03:34:25;3.22;;;2.90;;
61903;SDS011;47857;52.270;6.804;2022-08-25T03:36:52;5.40;;;3.05;;
61903;SDS011;47857;52.270;6.804;2022-08-25T03:39:19;7.10;;;2.95;;
61903;SDS011;47857;52.270;6.804;2022-08-25T03:41:45;5.57;;;2.97;;
61903;SDS011;47857;52.270;6.804;2022-08-25T03:44:12;7.65;;;3.20;;
61903;SDS011;47857;52.270;6.804;2022-08-25T03:46:39;8.25;;;3.13;;
61903;SDS011;47857;52.270;6.804;2022-08-25T03:49:08;8.10;;;3.10;;
61903;SDS011;47857;52.270;6.804;2022-08-25T03:51:36;8.25;;;3.00;;
61903;SDS011;47857;52.270;6.804;2022-08-25T03:54:05;4.38;;;2.53;;
61903;SDS011;47857;52.270;6.804;2022-08-25T03:56:31;5.07;;;2.88;;
61903;SDS011;47857;52.270;6.804;2022-08-25T03:58:57;5.80;;;2.95;;
61903;SDS011;47857;52.270;6.804;2022-08-25T04:01:23;7.72;;;3.05;;
61903;SDS011;47857;52.270;6.804;2022-08-25T04:03:49;10.27;;;3.05;;
61903;SDS011;47857;52.270;6.804;2022-08-25T04:06:15;3.80;;;2.90;;
61903;SDS011;47857;52.270;6.804;2022-08-25T04:08:41;7.28;;;3.13;;
61903;SDS011;47857;52.270;6.804;2022-08-25T04:11:08;9.15;;;3.20;;
61903;SDS011;47857;52.270;6.804;2022-08-25T04:13:37;6.88;;;3.30;;
61903;SDS011;47857;52.270;6.804;2022-08-25T04:16:03;7.82;;;3.20;;
61903;SDS011;47857;52.270;6.804;2022-08-25T04:18:35;4.97;;;2.93;;
61903;SDS011;47857;52.270;6.804;2022-08-25T04:21:02;8.30;;;4.65;;
61903;SDS011;47857;52.270;6.804;2022-08-25T04:23:28;9.25;;;3.65;;
61903;SDS011;47857;52.270;6.804;2022-08-25T04:25:54;11.85;;;6.20;;
61903;SDS011;47857;52.270;6.804;2022-08-25T04:28:19;13.10;;;5.10;;
61903;SDS011;47857;52.270;6.804;2022-08-25T04:30:45;7.53;;;3.75;;
61903;SDS011;47857;52.270;6.804;2022-08-25T04:33:10;9.13;;;4.25;;
61903;SDS011;47857;52.270;6.804;2022-08-25T04:35:37;7.28;;;3.38;;
61903;SDS011;47857;52.270;6.804;2022-08-25T04:38:03;5.78;;;3.38;;
61903;SDS011;47857;52.270;6.804;2022-08-25T04:40:28;8.93;;;3.28;;
61903;SDS011;47857;52.270;6.804;2022-08-25T04:42:54;7.25;;;3.08;;
61903;SDS011;47857;52.270;6.804;2022-08-25T04:45:19;5.88;;;3.33;;
61903;SDS011;47857;52.270;6.804;2022-08-25T04:47:45;6.45;;;3.50;;
61903;SDS011;47857;52.270;6.804;2022-08-25T04:50:10;7.22;;;3.20;;
61903;SDS011;47857;52.270;6.804;2022-08-25T04:52:36;6.55;;;3.30;;
61903;SDS011;47857;52.270;6.804;2022-08-25T04:55:02;7.72;;;3.60;;
61903;SDS011;47857;52.270;6.804;2022-08-25T04:57:28;6.20;;;2.85;;
61903;SDS011;47857;52.270;6.804;2022-08-25T04:59:53;8.27;;;3.42;;
61903;SDS011;47857;52.270;6.804;2022-08-25T05:02:20;5.70;;;3.05;;
61903;SDS011;47857;52.270;6.804;2022-08-25T05:04:46;9.50;;;3.55;;
61903;SDS011;47857;52.270;6.804;2022-08-25T05:07:11;6.03;;;3.00;;
61903;SDS011;47857;52.270;6.804;2022-08-25T05:09:37;7.18;;;3.10;;
61903;SDS011;47857;52.270;6.804;2022-08-25T05:12:03;5.50;;;2.92;;
61903;SDS011;47857;52.270;6.804;2022-08-25T05:14:29;5.65;;;2.85;;
61903;SDS011;47857;52.270;6.804;2022-08-25T05:16:55;9.48;;;3.25;;
61903;SDS011;47857;52.270;6.804;2022-08-25T05:19:21;5.15;;;3.08;;
61903;SDS011;47857;52.270;6.804;2022-08-25T05:21:48;13.63;;;3.60;;
61903;SDS011;47857;52.270;6.804;2022-08-25T05:24:14;7.57;;;3.33;;
61903;SDS011;47857;52.270;6.804;2022-08-25T05:26:39;7.22;;;3.50;;
61903;SDS011;47857;52.270;6.804;2022-08-25T05:29:05;7.78;;;3.30;;
61903;SDS011;47857;52.270;6.804;2022-08-25T05:31:31;5.03;;;3.10;;
61903;SDS011;47857;52.270;6.804;2022-08-25T05:33:57;4.28;;;3.15;;
61903;SDS011;47857;52.270;6.804;2022-08-25T05:36:24;9.02;;;3.17;;
61903;SDS011;47857;52.270;6.804;2022-08-25T05:38:51;5.15;;;3.33;;
61903;SDS011;47857;52.270;6.804;2022-08-25T05:41:19;11.43;;;3.55;;
61903;SDS011;47857;52.270;6.804;2022-08-25T05:43:47;5.07;;;3.28;;
61903;SDS011;47857;52.270;6.804;2022-08-25T05:46:13;12.82;;;3.63;;
61903;SDS011;47857;52.270;6.804;2022-08-25T05:48:39;14.45;;;4.60;;
61903;SDS011;47857;52.270;6.804;2022-08-25T05:53:43;18.55;;;5.70;;
61903;SDS011;47857;52.270;6.804;2022-08-25T05:56:10;14.38;;;4.30;;
61903;SDS011;47857;52.270;6.804;2022-08-25T05:58:38;11.25;;;4.18;;
61903;SDS011;47857;52.270;6.804;2022-08-25T06:01:04;12.43;;;3.63;;
61903;SDS011;47857;52.270;6.804;2022-08-25T06:03:49;11.07;;;4.15;;
61903;SDS011;47857;52.270;6.804;2022-08-25T06:06:17;9.02;;;4.88;;
61903;SDS011;47857;52.270;6.804;2022-08-25T06:08:43;13.60;;;4.38;;
61903;SDS011;47857;52.270;6.804;2022-08-25T06:11:09;19.45;;;8.30;;
61903;SDS011;47857;52.270;6.804;2022-08-25T06:13:38;9.38;;;4.80;;
61903;SDS011;47857;52.270;6.804;2022-08-25T06:16:04;13.15;;;5.68;;
61903;SDS011;47857;52.270;6.804;2022-08-25T06:18:29;12.90;;;6.07;;
61903;SDS011;47857;52.270;6.804;2022-08-25T06:20:55;7.88;;;5.25;;
61903;SDS011;47857;52.270;6.804;2022-08-25T06:23:21;14.32;;;7.00;;
61903;SDS011;47857;52.270;6.804;2022-08-25T06:25:50;11.18;;;6.70;;
61903;SDS011;47857;52.270;6.804;2022-08-25T06:28:16;7.90;;;3.95;;
61903;SDS011;47857;52.270;6.804;2022-08-25T06:30:43;9.10;;;3.70;;
61903;SDS011;47857;52.270;6.804;2022-08-25T06:33:19;9.82;;;4.15;;
61903;SDS011;47857;52.270;6.804;2022-08-25T06:35:44;8.70;;;4.00;;
61903;SDS011;47857;52.270;6.804;2022-08-25T06:38:10;6.13;;;3.90;;
61903;SDS011;47857;52.270;6.804;2022-08-25T06:40:35;7.95;;;3.47;;
61903;SDS011;47857;52.270;6.804;2022-08-25T06:43:01;9.13;;;4.00;;
61903;SDS011;47857;52.270;6.804;2022-08-25T06:45:26;11.63;;;4.28;;
61903;SDS011;47857;52.270;6.804;2022-08-25T06:47:52;6.38;;;3.80;;
61903;SDS011;47857;52.270;6.804;2022-08-25T06:50:18;7.90;;;3.72;;
61903;SDS011;47857;52.270;6.804;2022-08-25T06:52:44;9.70;;;3.80;;
61903;SDS011;47857;52.270;6.804;2022-08-25T06:55:10;8.40;;;4.00;;
61903;SDS011;47857;52.270;6.804;2022-08-25T06:57:36;8.35;;;3.88;;
61903;SDS011;47857;52.270;6.804;2022-08-25T07:00:03;5.85;;;3.30;;
61903;SDS011;47857;52.270;6.804;2022-08-25T07:02:30;11.32;;;3.90;;
61903;SDS011;47857;52.270;6.804;2022-08-25T07:04:56;10.90;;;5.45;;
61903;SDS011;47857;52.270;6.804;2022-08-25T07:07:21;8.93;;;4.70;;
61903;SDS011;47857;52.270;6.804;2022-08-25T07:09:47;12.73;;;6.28;;
61903;SDS011;47857;52.270;6.804;2022-08-25T07:12:12;8.60;;;5.38;;
61903;SDS011;47857;52.270;6.804;2022-08-25T07:14:38;17.23;;;7.85;;
61903;SDS011;47857;52.270;6.804;2022-08-25T07:17:03;20.02;;;10.10;;
61903;SDS011;47857;52.270;6.804;2022-08-25T07:19:29;8.98;;;4.90;;
61903;SDS011;47857;52.270;6.804;2022-08-25T07:21:54;15.55;;;7.22;;
61903;SDS011;47857;52.270;6.804;2022-08-25T07:24:20;11.27;;;6.78;;
61903;SDS011;47857;52.270;6.804;2022-08-25T07:26:47;9.45;;;4.60;;
61903;SDS011;47857;52.270;6.804;2022-08-25T07:29:14;9.75;;;4.10;;
61903;SDS011;47857;52.270;6.804;2022-08-25T07:31:42;9.80;;;4.30;;
61903;SDS011;47857;52.270;6.804;2022-08-25T07:34:08;11.27;;;3.90;;
61903;SDS011;47857;52.270;6.804;2022-08-25T07:36:53;6.78;;;3.60;;
61903;SDS011;47857;52.270;6.804;2022-08-25T07:39:19;8.35;;;3.80;;
61903;SDS011;47857;52.270;6.804;2022-08-25T07:41:45;8.20;;;3.70;;
61903;SDS011;47857;52.270;6.804;2022-08-25T07:44:11;8.02;;;3.40;;
61903;SDS011;47857;52.270;6.804;2022-08-25T07:46:37;6.55;;;3.63;;
61903;SDS011;47857;52.270;6.804;2022-08-25T07:49:06;8.73;;;4.10;;
61903;SDS011;47857;52.270;6.804;2022-08-25T07:51:31;6.35;;;4.25;;
61903;SDS011;47857;52.270;6.804;2022-08-25T07:53:56;7.68;;;4.10;;
61903;SDS011;47857;52.270;6.804;2022-08-25T07:56:22;13.00;;;3.60;;
61903;SDS011;47857;52.270;6.804;2022-08-25T07:58:48;9.90;;;4.05;;
61903;SDS011;47857;52.270;6.804;2022-08-25T08:01:17;8.32;;;3.60;;
61903;SDS011;47857;52.270;6.804;2022-08-25T08:03:44;6.30;;;3.90;;
61903;SDS011;47857;52.270;6.804;2022-08-25T08:06:12;7.00;;;3.60;;
61903;SDS011;47857;52.270;6.804;2022-08-25T08:08:39;6.68;;;3.92;;
61903;SDS011;47857;52.270;6.804;2022-08-25T08:11:13;6.90;;;3.90;;
61903;SDS011;47857;52.270;6.804;2022-08-25T08:13:41;12.30;;;4.13;;
61903;SDS011;47857;52.270;6.804;2022-08-25T08:16:10;9.73;;;3.97;;
61903;SDS011;47857;52.270;6.804;2022-08-25T08:18:37;7.43;;;3.80;;
61903;SDS011;47857;52.270;6.804;2022-08-25T08:21:03;13.82;;;4.13;;
61903;SDS011;47857;52.270;6.804;2022-08-25T08:23:29;11.00;;;4.38;;
61903;SDS011;47857;52.270;6.804;2022-08-25T08:25:55;6.97;;;4.10;;
61903;SDS011;47857;52.270;6.804;2022-08-25T08:28:21;7.53;;;3.97;;
61903;SDS011;47857;52.270;6.804;2022-08-25T08:30:46;9.43;;;3.90;;
61903;SDS011;47857;52.270;6.804;2022-08-25T08:33:12;6.32;;;4.00;;
61903;SDS011;47857;52.270;6.804;2022-08-25T08:35:38;11.65;;;4.40;;
61903;SDS011;47857;52.270;6.804;2022-08-25T08:38:05;9.57;;;4.10;;
61903;SDS011;47857;52.270;6.804;2022-08-25T08:40:30;7.07;;;3.83;;
61903;SDS011;47857;52.270;6.804;2022-08-25T08:43:04;9.38;;;4.07;;
61903;SDS011;47857;52.270;6.804;2022-08-25T08:45:35;8.90;;;4.28;;
61903;SDS011;47857;52.270;6.804;2022-08-25T08:48:07;8.85;;;4.25;;
61903;SDS011;47857;52.270;6.804;2022-08-25T08:56:18;10.90;;;4.30;;
61903;SDS011;47857;52.270;6.804;2022-08-25T08:58:46;13.07;;;4.43;;
61903;SDS011;47857;52.270;6.804;2022-08-25T09:01:16;7.20;;;4.35;;
61903;SDS011;47857;52.270;6.804;2022-08-25T09:03:48;10.77;;;5.10;;
61903;SDS011;47857;52.270;6.804;2022-08-25T09:06:21;7.43;;;4.25;;
61903;SDS011;47857;52.270;6.804;2022-08-25T09:08:50;6.25;;;3.78;;
61903;SDS011;47857;52.270;6.804;2022-08-25T09:11:33;5.93;;;4.00;;
61903;SDS011;47857;52.270;6.804;2022-08-25T09:16:59;9.02;;;3.63;;
61903;SDS011;47857;52.270;6.804;2022-08-25T09:19:30;7.57;;;3.70;;
61903;SDS011;47857;52.270;6.804;2022-08-25T09:22:04;7.88;;;3.72;;
61903;SDS011;47857;52.270;6.804;2022-08-25T09:27:39;6.78;;;3.80;;
61903;SDS011;47857;52.270;6.804;2022-08-25T09:32:33;9.30;;;4.30;;
61903;SDS011;47857;52.270;6.804;2022-08-25T09:35:01;7.68;;;3.83;;
61903;SDS011;47857;52.270;6.804;2022-08-25T09:37:27;6.35;;;3.55;;
61903;SDS011;47857;52.270;6.804;2022-08-25T09:39:53;10.07;;;3.50;;
61903;SDS011;47857;52.270;6.804;2022-08-25T09:42:18;5.20;;;3.42;;
61903;SDS011;47857;52.270;6.804;2022-08-25T09:44:45;9.05;;;3.78;;
61903;SDS011;47857;52.270;6.804;2022-08-25T09:47:22;8.75;;;5.15;;
61903;SDS011;47857;52.270;6.804;2022-08-25T09:49:50;7.57;;;3.90;;
61903;SDS011;47857;52.270;6.804;2022-08-25T09:52:25;7.00;;;5.18;;
61903;SDS011;47857;52.270;6.804;2022-08-25T10:00:11;21.85;;;14.93;;
61903;SDS011;47857;52.270;6.804;2022-08-25T10:08:38;7.45;;;3.80;;
61903;SDS011;47857;52.270;6.804;2022-08-25T10:11:06;9.52;;;4.32;;
61903;SDS011;47857;52.270;6.804;2022-08-25T10:13:44;7.07;;;3.92;;
61903;SDS011;47857;52.270;6.804;2022-08-25T10:16:21;5.60;;;4.00;;
61903;SDS011;47857;52.270;6.804;2022-08-25T10:21:26;8.95;;;3.30;;
61903;SDS011;47857;52.270;6.804;2022-08-25T10:23:51;5.13;;;3.47;;
61903;SDS011;47857;52.270;6.804;2022-08-25T10:35:03;6.75;;;3.10;;
61903;SDS011;47857;52.270;6.804;2022-08-25T10:45:42;9.25;;;3.75;;
61903;SDS011;47857;52.270;6.804;2022-08-25T10:48:33;4.78;;;3.53;;
61903;SDS011;47857;52.270;6.804;2022-08-25T10:54:17;9.45;;;3.80;;
61903;SDS011;47857;52.270;6.804;2022-08-25T10:57:33;7.00;;;3.33;;
61903;SDS011;47857;52.270;6.804;2022-08-25T11:07:51;5.97;;;3.35;;
61903;SDS011;47857;52.270;6.804;2022-08-25T11:10:21;6.68;;;3.20;;
61903;SDS011;47857;52.270;6.804;2022-08-25T11:12:52;6.28;;;3.22;;
61903;SDS011;47857;52.270;6.804;2022-08-25T11:15:21;5.00;;;3.33;;
61903;SDS011;47857;52.270;6.804;2022-08-25T11:21:23;7.10;;;3.38;;
61903;SDS011;47857;52.270;6.804;2022-08-25T11:23:45;5.38;;;3.03;;
61903;SDS011;47857;52.270;6.804;2022-08-25T11:26:16;6.50;;;3.13;;
61903;SDS011;47857;52.270;6.804;2022-08-25T11:28:50;5.70;;;3.42;;
61903;SDS011;47857;52.270;6.804;2022-08-25T11:31:18;4.10;;;3.28;;
61903;SDS011;47857;52.270;6.804;2022-08-25T11:33:45;7.28;;;3.10;;
61903;SDS011;47857;52.270;6.804;2022-08-25T11:36:24;6.22;;;3.22;;
61903;SDS011;47857;52.270;6.804;2022-08-25T11:49:52;6.03;;;2.90;;
61903;SDS011;47857;52.270;6.804;2022-08-25T11:57:48;3.60;;;2.42;;
61903;SDS011;47857;52.270;6.804;2022-08-25T12:03:44;4.40;;;2.33;;
61903;SDS011;47857;52.270;6.804;2022-08-25T12:11:45;6.05;;;2.67;;
61903;SDS011;47857;52.270;6.804;2022-08-25T12:14:32;11.73;;;8.52;;
61903;SDS011;47857;52.270;6.804;2022-08-25T12:17:08;12.10;;;8.57;;
61903;SDS011;47857;52.270;6.804;2022-08-25T12:36:10;7.45;;;2.83;;
61903;SDS011;47857;52.270;6.804;2022-08-25T12:40:57;6.30;;;2.50;;
61903;SDS011;47857;52.270;6.804;2022-08-25T12:43:28;4.00;;;2.55;;
61903;SDS011;47857;52.270;6.804;2022-08-25T12:49:47;4.03;;;2.08;;
61903;SDS011;47857;52.270;6.804;2022-08-25T12:52:27;4.30;;;2.10;;
61903;SDS011;47857;52.270;6.804;2022-08-25T12:54:59;4.65;;;2.20;;
61903;SDS011;47857;52.270;6.804;2022-08-25T13:00:21;5.90;;;2.60;;
61903;SDS011;47857;52.270;6.804;2022-08-25T13:08:05;5.93;;;2.20;;
61903;SDS011;47857;52.270;6.804;2022-08-25T13:10:50;3.67;;;2.20;;
61903;SDS011;47857;52.270;6.804;2022-08-25T13:16:07;3.13;;;1.90;;
61903;SDS011;47857;52.270;6.804;2022-08-25T13:18:35;3.97;;;2.35;;
61903;SDS011;47857;52.270;6.804;2022-08-25T13:21:15;4.88;;;2.50;;
61903;SDS011;47857;52.270;6.804;2022-08-25T13:23:44;3.80;;;2.25;;
61903;SDS011;47857;52.270;6.804;2022-08-25T13:26:13;6.03;;;2.20;;
61903;SDS011;47857;52.270;6.804;2022-08-25T13:28:39;13.45;;;8.50;;
61903;SDS011;47857;52.270;6.804;2022-08-25T13:33:33;6.32;;;4.10;;
61903;SDS011;47857;52.270;6.804;2022-08-25T13:35:59;13.23;;;9.20;;
61903;SDS011;47857;52.270;6.804;2022-08-25T13:38:45;11.60;;;6.70;;
61903;SDS011;47857;52.270;6.804;2022-08-25T13:41:15;6.10;;;3.25;;
61903;SDS011;47857;52.270;6.804;2022-08-25T13:43:43;7.05;;;2.50;;
61903;SDS011;47857;52.270;6.804;2022-08-25T13:46:08;5.90;;;2.45;;
61903;SDS011;47857;52.270;6.804;2022-08-25T13:48:35;4.20;;;2.30;;
61903;SDS011;47857;52.270;6.804;2022-08-25T13:53:33;3.92;;;2.05;;
61903;SDS011;47857;52.270;6.804;2022-08-25T13:56:00;2.78;;;2.22;;
61903;SDS011;47857;52.270;6.804;2022-08-25T13:58:30;3.05;;;2.05;;
61903;SDS011;47857;52.270;6.804;2022-08-25T14:03:42;3.97;;;2.22;;
61903;SDS011;47857;52.270;6.804;2022-08-25T14:09:03;4.15;;;2.30;;
61903;SDS011;47857;52.270;6.804;2022-08-25T14:11:31;7.07;;;2.47;;
61903;SDS011;47857;52.270;6.804;2022-08-25T14:14:03;3.85;;;2.45;;
61903;SDS011;47857;52.270;6.804;2022-08-25T14:16:35;5.05;;;2.53;;
61903;SDS011;47857;52.270;6.804;2022-08-25T14:19:03;5.68;;;2.65;;
61903;SDS011;47857;52.270;6.804;2022-08-25T14:21:29;5.22;;;2.67;;
61903;SDS011;47857;52.270;6.804;2022-08-25T14:23:57;9.60;;;2.47;;
61903;SDS011;47857;52.270;6.804;2022-08-25T14:26:23;6.30;;;2.40;;
61903;SDS011;47857;52.270;6.804;2022-08-25T14:28:48;5.53;;;2.45;;
61903;SDS011;47857;52.270;6.804;2022-08-25T14:31:36;5.60;;;2.28;;
61903;SDS011;47857;52.270;6.804;2022-08-25T14:34:06;4.03;;;2.80;;
61903;SDS011;47857;52.270;6.804;2022-08-25T14:36:34;4.90;;;2.45;;
61903;SDS011;47857;52.270;6.804;2022-08-25T14:39:00;6.32;;;2.90;;
61903;SDS011;47857;52.270;6.804;2022-08-25T14:41:30;3.40;;;2.40;;
61903;SDS011;47857;52.270;6.804;2022-08-25T14:43:58;4.13;;;2.42;;
61903;SDS011;47857;52.270;6.804;2022-08-25T14:46:26;4.45;;;2.55;;
61903;SDS011;47857;52.270;6.804;2022-08-25T14:48:59;5.25;;;2.47;;
61903;SDS011;47857;52.270;6.804;2022-08-25T14:51:28;10.23;;;2.78;;
61903;SDS011;47857;52.270;6.804;2022-08-25T14:54:01;4.78;;;2.20;;
61903;SDS011;47857;52.270;6.804;2022-08-25T14:56:29;4.32;;;2.25;;
61903;SDS011;47857;52.270;6.804;2022-08-25T14:58:54;4.75;;;2.20;;
61903;SDS011;47857;52.270;6.804;2022-08-25T15:01:21;4.72;;;2.38;;
61903;SDS011;47857;52.270;6.804;2022-08-25T15:03:49;4.28;;;2.35;;
61903;SDS011;47857;52.270;6.804;2022-08-25T15:06:16;3.58;;;2.15;;
61903;SDS011;47857;52.270;6.804;2022-08-25T15:08:42;3.70;;;2.03;;
61903;SDS011;47857;52.270;6.804;2022-08-25T15:11:27;5.70;;;3.80;;
61903;SDS011;47857;52.270;6.804;2022-08-25T15:13:53;4.55;;;2.90;;
61903;SDS011;47857;52.270;6.804;2022-08-25T15:16:26;11.48;;;8.75;;
61903;SDS011;47857;52.270;6.804;2022-08-25T15:18:54;11.70;;;7.45;;
61903;SDS011;47857;52.270;6.804;2022-08-25T15:21:20;15.52;;;11.93;;
61903;SDS011;47857;52.270;6.804;2022-08-25T15:23:46;18.52;;;13.95;;
61903;SDS011;47857;52.270;6.804;2022-08-25T15:26:12;14.20;;;9.98;;
61903;SDS011;47857;52.270;6.804;2022-08-25T15:28:39;12.85;;;7.18;;
61903;SDS011;47857;52.270;6.804;2022-08-25T15:31:11;5.90;;;4.33;;
61903;SDS011;47857;52.270;6.804;2022-08-25T15:33:40;3.63;;;2.65;;
61903;SDS011;47857;52.270;6.804;2022-08-25T15:36:06;4.82;;;3.00;;
61903;SDS011;47857;52.270;6.804;2022-08-25T15:38:38;3.63;;;2.50;;
61903;SDS011;47857;52.270;6.804;2022-08-25T15:41:06;6.05;;;2.50;;
61903;SDS011;47857;52.270;6.804;2022-08-25T15:43:32;3.00;;;2.53;;
61903;SDS011;47857;52.270;6.804;2022-08-25T15:45:58;4.20;;;2.70;;
61903;SDS011;47857;52.270;6.804;2022-08-25T15:48:24;4.28;;;2.83;;
61903;SDS011;47857;52.270;6.804;2022-08-25T15:50:52;5.80;;;2.70;;
61903;SDS011;47857;52.270;6.804;2022-08-25T15:53:22;5.95;;;3.25;;
61903;SDS011;47857;52.270;6.804;2022-08-25T15:55:50;4.78;;;2.90;;
61903;SDS011;47857;52.270;6.804;2022-08-25T15:58:16;5.88;;;2.92;;
61903;SDS011;47857;52.270;6.804;2022-08-25T16:00:42;6.05;;;2.75;;
61903;SDS011;47857;52.270;6.804;2022-08-25T16:03:09;6.35;;;2.85;;
61903;SDS011;47857;52.270;6.804;2022-08-25T16:05:35;5.85;;;2.80;;
61903;SDS011;47857;52.270;6.804;2022-08-25T16:08:05;6.32;;;3.20;;
61903;SDS011;47857;52.270;6.804;2022-08-25T16:10:32;4.03;;;2.80;;
61903;SDS011;47857;52.270;6.804;2022-08-25T16:13:01;8.02;;;3.00;;
61903;SDS011;47857;52.270;6.804;2022-08-25T16:15:27;5.97;;;2.92;;
61903;SDS011;47857;52.270;6.804;2022-08-25T16:17:53;3.67;;;2.83;;
61903;SDS011;47857;52.270;6.804;2022-08-25T16:20:19;4.63;;;2.80;;
61903;SDS011;47857;52.270;6.804;2022-08-25T16:22:45;5.72;;;2.83;;
61903;SDS011;47857;52.270;6.804;2022-08-25T16:25:11;6.20;;;3.00;;
61903;SDS011;47857;52.270;6.804;2022-08-25T16:27:37;4.78;;;3.08;;
61903;SDS011;47857;52.270;6.804;2022-08-25T16:30:07;4.55;;;2.97;;
61903;SDS011;47857;52.270;6.804;2022-08-25T16:32:33;5.22;;;2.90;;
61903;SDS011;47857;52.270;6.804;2022-08-25T16:34:59;9.85;;;3.05;;
61903;SDS011;47857;52.270;6.804;2022-08-25T16:37:24;5.75;;;3.08;;
61903;SDS011;47857;52.270;6.804;2022-08-25T16:39:53;5.82;;;3.33;;
61903;SDS011;47857;52.270;6.804;2022-08-25T16:42:19;6.22;;;3.03;;
61903;SDS011;47857;52.270;6.804;2022-08-25T16:44:45;5.97;;;3.40;;
61903;SDS011;47857;52.270;6.804;2022-08-25T16:47:11;4.38;;;3.17;;
61903;SDS011;47857;52.270;6.804;2022-08-25T16:49:38;6.43;;;3.08;;
61903;SDS011;47857;52.270;6.804;2022-08-25T16:52:04;4.43;;;3.05;;
61903;SDS011;47857;52.270;6.804;2022-08-25T16:54:49;8.43;;;2.90;;
61903;SDS011;47857;52.270;6.804;2022-08-25T16:57:34;6.47;;;3.50;;
61903;SDS011;47857;52.270;6.804;2022-08-25T16:59:59;8.35;;;3.08;;
61903;SDS011;47857;52.270;6.804;2022-08-25T17:02:25;8.07;;;2.90;;
61903;SDS011;47857;52.270;6.804;2022-08-25T17:04:50;4.68;;;2.88;;
61903;SDS011;47857;52.270;6.804;2022-08-25T17:07:15;5.25;;;3.15;;
61903;SDS011;47857;52.270;6.804;2022-08-25T17:09:44;7.32;;;2.95;;
61903;SDS011;47857;52.270;6.804;2022-08-25T17:12:09;7.50;;;2.88;;
61903;SDS011;47857;52.270;6.804;2022-08-25T17:14:35;4.95;;;3.10;;